Terminal Aerodrome Forecast
Issued by NWS

Home | Current Version | Previous Version | Text Only | Print | Product List | Glossary On
Versions: 1 2 3 4 5 6 7 8 9 10 11 12 13 14 15
000
FTUS42 KMLB 101419 AAA
TAFSUA
TAF AMD
KSUA 101419Z 1014/1112 05014G21KT P6SM BKN020 OVC035
     FM101800 04013G20KT P6SM VCSH SCT025 BKN035
     FM110100 05012KT P6SM VCSH FEW030 BKN040
     FM110500 05009KT P6SM VCSH SCT040 SCT250=

USA.gov is the U.S. government's official web portal to all federal, state and local government web resources and services.